createdAt,value
2018-01-01T00:00:04.624Z,10
2018-01-01T00:05:02.823Z,6
2018-01-01T00:10:03.445Z,13
2018-01-01T00:15:02.900Z,8
2018-01-01T00:20:03.427Z,15
2018-01-01T00:25:03.022Z,8
2018-01-01T00:30:03.500Z,9
2018-01-01T00:35:02.944Z,9
2018-01-01T00:40:03.494Z,7
2018-01-01T00:45:02.930Z,11
2018-01-01T00:50:03.465Z,9
2018-01-01T00:55:02.907Z,12
2018-01-01T01:00:03.444Z,16
2018-01-01T01:05:03.503Z,10
2018-01-01T01:10:03.187Z,11
2018-01-01T01:15:02.626Z,10
2018-01-01T01:20:03.261Z,10
2018-01-01T01:25:02.975Z,11
2018-01-01T01:30:03.484Z,11
2018-01-01T01:35:03.159Z,12
2018-01-01T01:45:03.191Z,7
2018-01-01T01:50:02.767Z,10
2018-01-01T01:55:03.272Z,8
2018-01-01T02:00:02.672Z,10
2018-01-01T02:05:03.204Z,12
2018-01-01T02:10:02.830Z,14
2018-01-01T02:15:03.363Z,9
2018-01-01T02:20:02.866Z,10
2018-01-01T02:25:03.472Z,10
2018-01-01T02:30:02.998Z,10
2018-01-01T02:35:02.644Z,15
2018-01-01T02:40:03.044Z,12
2018-01-01T02:45:03.507Z,15
2018-01-01T02:50:03.070Z,11
2018-01-01T02:55:02.651Z,12
2018-01-01T03:00:03.205Z,16
2018-01-01T03:05:02.709Z,15
2018-01-01T03:10:03.297Z,12
2018-01-01T03:15:02.795Z,14
2018-01-01T03:20:03.365Z,12
2018-01-01T03:25:02.782Z,12
2018-01-01T03:30:03.259Z,17
2018-01-01T03:35:02.680Z,13
2018-01-01T03:40:03.284Z,9
2018-01-01T03:45:02.781Z,11
2018-01-01T03:50:03.224Z,6
2018-01-01T03:55:03.605Z,11
2018-01-01T04:00:03.146Z,13
2018-01-01T04:05:02.761Z,10
2018-01-01T04:10:03.206Z,10
2018-01-01T04:15:02.642Z,13
2018-01-01T04:20:03.163Z,11
2018-01-01T04:25:03.608Z,7
2018-01-01T04:30:03.013Z,12
2018-01-01T04:35:03.497Z,9
2018-01-01T04:40:03.087Z,6
2018-01-01T04:45:03.570Z,6
2018-01-01T04:50:03.075Z,7
2018-01-01T04:55:02.553Z,7
2018-01-01T05:00:02.969Z,7
2018-01-01T05:05:03.436Z,8
2018-01-01T05:10:02.994Z,7
2018-01-01T05:15:03.611Z,12
2018-01-01T05:20:03.077Z,6
2018-01-01T05:25:02.654Z,9
2018-01-01T05:30:02.841Z,6
2018-01-01T05:35:03.285Z,9
2018-01-01T05:40:02.727Z,7
2018-01-01T05:45:03.216Z,8
2018-01-01T05:50:02.903Z,10
2018-01-01T06:00:03.254Z,7
2018-01-01T06:05:02.795Z,6
2018-01-01T06:10:03.292Z,8
2018-01-01T06:15:02.744Z,11
2018-01-01T06:20:03.299Z,8
2018-01-01T06:25:02.809Z,8
2018-01-01T06:30:03.313Z,5
2018-01-01T06:35:02.793Z,10
2018-01-01T06:40:03.365Z,10
2018-01-01T06:45:02.942Z,7
2018-01-01T06:50:03.442Z,7
2018-01-01T06:55:03.037Z,10
2018-01-01T07:00:03.479Z,6
2018-01-01T07:05:02.929Z,6
2018-01-01T07:10:03.457Z,7
2018-01-01T07:15:03.010Z,7
2018-01-01T07:20:03.499Z,4
2018-01-01T07:25:02.964Z,10
2018-01-01T07:30:03.534Z,10
2018-01-01T07:35:02.967Z,10
2018-01-01T07:40:03.414Z,6
2018-01-01T07:45:02.965Z,12
2018-01-01T07:50:03.534Z,12
2018-01-01T07:55:03.102Z,7
2018-01-01T08:00:03.565Z,8
2018-01-01T08:05:03.138Z,7
2018-01-01T08:10:03.591Z,8
2018-01-01T08:15:03.116Z,9
2018-01-01T08:20:03.564Z,11
2018-01-01T08:25:03.008Z,7
2018-01-01T08:30:03.690Z,9
2018-01-01T08:35:03.317Z,14
2018-01-01T08:40:02.918Z,12
2018-01-01T08:45:03.402Z,8
2018-01-01T08:50:03.044Z,13
2018-01-01T08:55:03.534Z,10
2018-01-01T09:00:03.015Z,15
2018-01-01T09:05:03.583Z,14
2018-01-01T09:10:03.122Z,12
2018-01-01T09:15:03.753Z,10
2018-01-01T09:20:03.455Z,9
2018-01-01T09:25:02.897Z,8
2018-01-01T09:30:03.347Z,9
2018-01-01T09:35:02.759Z,7
2018-01-01T09:40:03.265Z,11
2018-01-01T09:45:02.938Z,13
2018-01-01T09:50:03.373Z,6
2018-01-01T09:55:02.756Z,4
2018-01-01T10:00:03.298Z,10
2018-01-01T10:05:02.907Z,8
2018-01-01T10:10:02.841Z,13
2018-01-01T10:15:03.334Z,8
2018-01-01T10:20:02.947Z,8
2018-01-01T10:25:03.541Z,11
2018-01-01T10:30:03.094Z,14
2018-01-01T10:35:03.464Z,6
2018-01-01T10:40:02.958Z,7
2018-01-01T10:45:03.524Z,12
2018-01-01T10:50:03.054Z,10
2018-01-01T10:55:03.590Z,9
2018-01-01T11:00:03.268Z,14
2018-01-01T11:05:02.775Z,7
2018-01-01T11:10:03.296Z,8
2018-01-01T11:15:02.785Z,7
2018-01-01T11:20:03.406Z,8
2018-01-01T11:25:02.944Z,13
2018-01-01T11:30:03.475Z,6
2018-01-01T11:35:03.028Z,8
2018-01-01T11:40:03.581Z,7
2018-01-01T11:45:03.093Z,11
2018-01-01T11:50:02.700Z,8
2018-01-01T11:55:03.104Z,10
2018-01-01T12:00:02.725Z,8
2018-01-01T12:05:03.129Z,6
2018-01-01T12:10:02.695Z,6
2018-01-01T12:15:03.281Z,7
2018-01-01T12:20:02.801Z,9
2018-01-01T12:25:03.394Z,10
2018-01-01T12:30:02.840Z,7
2018-01-01T12:35:03.252Z,9
2018-01-01T12:40:02.907Z,9
2018-01-01T12:45:03.355Z,9
2018-01-01T12:50:02.803Z,6
2018-01-01T12:55:03.353Z,7
2018-01-01T13:00:02.803Z,7
2018-01-01T13:05:03.382Z,5
2018-01-01T13:10:02.944Z,7
2018-01-01T13:15:03.410Z,3
2018-01-01T13:20:02.906Z,7
2018-01-01T13:25:03.381Z,5
2018-01-01T13:30:02.748Z,6
2018-01-01T13:35:03.332Z,2
2018-01-01T13:40:02.811Z,3
2018-01-01T13:45:03.433Z,7
2018-01-01T13:50:03.005Z,2
2018-01-01T13:55:03.617Z,3
2018-01-01T14:00:03.184Z,2
2018-01-01T14:05:02.878Z,7
2018-01-01T14:10:03.306Z,3
2018-01-01T14:15:02.708Z,3
2018-01-01T14:20:03.319Z,2
2018-01-01T14:25:02.804Z,3
2018-01-01T14:30:03.402Z,3
2018-01-01T14:35:03.005Z,3
2018-01-01T14:40:03.761Z,8
2018-01-01T14:45:03.364Z,6
2018-01-01T14:50:03.218Z,3
2018-01-01T14:55:02.946Z,3
2018-01-01T15:00:03.416Z,2
2018-01-01T15:05:03.024Z,1
2018-01-01T15:10:02.616Z,0
2018-01-01T15:15:03.199Z,1
2018-01-01T15:20:02.694Z,0
2018-01-01T15:25:03.252Z,1
2018-01-01T15:30:02.958Z,2
2018-01-01T15:35:03.570Z,3
2018-01-01T15:40:03.146Z,1
2018-01-01T15:45:02.684Z,1
2018-01-01T15:50:03.303Z,1
2018-01-01T15:55:02.859Z,2
2018-01-01T16:00:03.425Z,0
2018-01-01T16:05:02.960Z,0
2018-01-01T16:10:03.468Z,0
2018-01-01T16:15:02.887Z,0
2018-01-01T16:20:03.469Z,0
2018-01-01T16:25:02.903Z,0
2018-01-01T16:30:03.419Z,0
2018-01-01T16:35:03.018Z,0
2018-01-01T16:40:03.611Z,0
2018-01-01T16:45:03.304Z,0
2018-01-01T16:50:02.734Z,0
2018-01-01T16:55:03.381Z,0
2018-01-01T17:00:03.092Z,0
2018-01-01T17:05:02.674Z,0
2018-01-01T17:10:03.510Z,0
2018-01-01T17:15:03.009Z,0
2018-01-01T17:20:03.461Z,0
2018-01-01T17:25:02.992Z,0
2018-01-01T17:30:03.454Z,0
2018-01-01T17:35:02.824Z,0
2018-01-01T17:40:03.442Z,0
2018-01-01T17:45:02.898Z,0
2018-01-01T17:50:03.437Z,0
2018-01-01T17:55:03.220Z,0
2018-01-01T18:00:02.748Z,0
2018-01-01T18:05:03.422Z,0
2018-01-01T18:10:03.114Z,0
2018-01-01T18:15:03.617Z,0
2018-01-01T18:20:03.249Z,0
2018-01-01T18:25:02.909Z,0
2018-01-01T18:30:03.397Z,0
2018-01-01T18:35:03.036Z,0
2018-01-01T18:40:02.820Z,0
2018-01-01T18:45:03.291Z,0
2018-01-01T18:50:03.115Z,0
2018-01-01T18:55:02.637Z,0
2018-01-01T19:00:03.204Z,0
2018-01-01T19:05:02.725Z,0
2018-01-01T19:10:03.285Z,0
2018-01-01T19:15:02.760Z,0
2018-01-01T19:20:03.570Z,0
2018-01-01T19:25:03.026Z,0
2018-01-01T19:30:02.618Z,0
2018-01-01T19:35:03.262Z,0
2018-01-01T19:40:03.013Z,0
2018-01-01T19:45:03.510Z,1
2018-01-01T19:50:03.119Z,0
2018-01-01T19:55:03.563Z,0
2018-01-01T20:00:03.097Z,0
2018-01-01T20:05:03.062Z,0
2018-01-01T20:10:03.617Z,0
2018-01-01T20:15:03.157Z,2
2018-01-01T20:20:02.872Z,0
2018-01-01T20:25:03.552Z,0
2018-01-01T20:30:03.083Z,0
2018-01-01T20:35:03.034Z,0
2018-01-01T20:40:02.685Z,2
2018-01-01T20:45:03.191Z,1
2018-01-01T20:50:02.668Z,0
2018-01-01T20:55:03.376Z,3
2018-01-01T21:00:02.847Z,2
2018-01-01T21:05:03.405Z,1
2018-01-01T21:10:02.956Z,2
2018-01-01T21:15:03.421Z,2
2018-01-01T21:20:03.268Z,3
2018-01-01T21:25:02.932Z,5
2018-01-01T21:30:03.566Z,3
2018-01-01T21:35:03.164Z,5
2018-01-01T21:40:02.878Z,5
2018-01-01T21:45:03.346Z,4
2018-01-01T21:50:02.806Z,3
2018-01-01T21:55:03.405Z,2
2018-01-01T22:00:02.956Z,6
2018-01-01T22:05:02.703Z,5
2018-01-01T22:10:03.391Z,3
2018-01-01T22:15:02.848Z,4
2018-01-01T22:20:03.489Z,5
2018-01-01T22:25:03.106Z,3
2018-01-01T22:30:02.639Z,2
2018-01-01T22:35:03.163Z,5
2018-01-01T22:40:02.753Z,3
2018-01-01T22:45:03.207Z,2
2018-01-01T22:50:02.664Z,3
2018-01-01T22:55:03.253Z,5
2018-01-01T23:00:02.840Z,3
2018-01-01T23:05:03.289Z,5
2018-01-01T23:10:03.046Z,6
2018-01-01T23:15:03.489Z,5
2018-01-01T23:20:03.055Z,6
2018-01-01T23:25:02.728Z,4
2018-01-01T23:30:03.179Z,5
2018-01-01T23:35:02.676Z,3
2018-01-01T23:40:03.310Z,3
2018-01-01T23:45:02.894Z,4
2018-01-01T23:50:03.494Z,2
2018-01-01T23:55:03.033Z,3
